sensor_id;sensor_type;location;lat;lon;timestamp;temperature;humidity
18392;DHT22;9322;50.932;5.318;2022-11-20T00:01:50;3.90;99.90
18392;DHT22;9322;50.932;5.318;2022-11-20T00:04:16;3.90;99.90
18392;DHT22;9322;50.932;5.318;2022-11-20T00:06:41;3.80;99.90
18392;DHT22;9322;50.932;5.318;2022-11-20T00:09:09;3.90;99.90
18392;DHT22;9322;50.932;5.318;2022-11-20T00:11:35;3.90;99.90
18392;DHT22;9322;50.932;5.318;2022-11-20T00:14:01;3.80;99.90
18392;DHT22;9322;50.932;5.318;2022-11-20T00:16:29;3.90;99.90
18392;DHT22;9322;50.932;5.318;2022-11-20T00:18:55;3.90;99.90
18392;DHT22;9322;50.932;5.318;2022-11-20T00:21:25;3.90;99.90
18392;DHT22;9322;50.932;5.318;2022-11-20T00:23:53;3.80;99.90
18392;DHT22;9322;50.932;5.318;2022-11-20T00:26:19;3.80;99.90
18392;DHT22;9322;50.932;5.318;2022-11-20T00:28:53;3.90;99.90
18392;DHT22;9322;50.932;5.318;2022-11-20T00:31:20;3.90;99.90
18392;DHT22;9322;50.932;5.318;2022-11-20T00:33:46;3.90;99.90
18392;DHT22;9322;50.932;5.318;2022-11-20T00:36:17;4.00;99.90
18392;DHT22;9322;50.932;5.318;2022-11-20T00:38:44;4.00;99.90
18392;DHT22;9322;50.932;5.318;2022-11-20T00:41:15;4.00;99.90
18392;DHT22;9322;50.932;5.318;2022-11-20T00:43:41;4.00;99.90
18392;DHT22;9322;50.932;5.318;2022-11-20T00:46:13;4.00;99.90
18392;DHT22;9322;50.932;5.318;2022-11-20T00:48:39;4.00;99.90
18392;DHT22;9322;50.932;5.318;2022-11-20T00:51:05;4.10;99.90
18392;DHT22;9322;50.932;5.318;2022-11-20T00:53:31;4.10;99.90
18392;DHT22;9322;50.932;5.318;2022-11-20T00:55:59;4.00;99.90
18392;DHT22;9322;50.932;5.318;2022-11-20T00:58:29;3.90;99.90
18392;DHT22;9322;50.932;5.318;2022-11-20T01:01:04;4.00;99.90
18392;DHT22;9322;50.932;5.318;2022-11-20T01:03:41;4.10;99.90
18392;DHT22;9322;50.932;5.318;2022-11-20T01:06:12;4.20;99.90
18392;DHT22;9322;50.932;5.318;2022-11-20T01:08:38;4.10;99.90
18392;DHT22;9322;50.932;5.318;2022-11-20T01:11:25;4.10;99.90
18392;DHT22;9322;50.932;5.318;2022-11-20T01:13:52;4.10;99.90
18392;DHT22;9322;50.932;5.318;2022-11-20T01:16:19;4.10;99.90
18392;DHT22;9322;50.932;5.318;2022-11-20T01:18:47;4.10;99.90
18392;DHT22;9322;50.932;5.318;2022-11-20T01:21:48;4.00;99.90
18392;DHT22;9322;50.932;5.318;2022-11-20T01:24:08;3.90;99.90
18392;DHT22;9322;50.932;5.318;2022-11-20T01:26:37;3.90;99.90
18392;DHT22;9322;50.932;5.318;2022-11-20T01:29:04;3.90;99.90
18392;DHT22;9322;50.932;5.318;2022-11-20T01:31:35;3.90;99.90
18392;DHT22;9322;50.932;5.318;2022-11-20T01:34:04;4.00;99.90
18392;DHT22;9322;50.932;5.318;2022-11-20T01:36:31;4.10;99.90
18392;DHT22;9322;50.932;5.318;2022-11-20T01:39:00;4.10;99.90
18392;DHT22;9322;50.932;5.318;2022-11-20T01:41:27;4.10;99.90
18392;DHT22;9322;50.932;5.318;2022-11-20T01:44:15;4.10;99.90
18392;DHT22;9322;50.932;5.318;2022-11-20T01:46:57;4.10;99.90
18392;DHT22;9322;50.932;5.318;2022-11-20T01:49:37;4.20;99.90
18392;DHT22;9322;50.932;5.318;2022-11-20T01:52:35;4.10;99.90
18392;DHT22;9322;50.932;5.318;2022-11-20T01:55:24;4.10;99.90
18392;DHT22;9322;50.932;5.318;2022-11-20T01:57:50;4.00;99.90
18392;DHT22;9322;50.932;5.318;2022-11-20T02:00:18;3.90;99.90
18392;DHT22;9322;50.932;5.318;2022-11-20T02:02:57;3.90;99.90
18392;DHT22;9322;50.932;5.318;2022-11-20T02:05:31;3.90;99.90
18392;DHT22;9322;50.932;5.318;2022-11-20T02:07:59;3.90;99.90
18392;DHT22;9322;50.932;5.318;2022-11-20T02:10:26;3.80;99.90
18392;DHT22;9322;50.932;5.318;2022-11-20T02:12:53;3.80;99.90
18392;DHT22;9322;50.932;5.318;2022-11-20T02:15:37;3.90;99.90
18392;DHT22;9322;50.932;5.318;2022-11-20T02:18:03;3.90;99.90
18392;DHT22;9322;50.932;5.318;2022-11-20T02:20:30;4.00;99.90
18392;DHT22;9322;50.932;5.318;2022-11-20T02:23:11;4.00;99.90
18392;DHT22;9322;50.932;5.318;2022-11-20T02:25:37;4.00;99.90
18392;DHT22;9322;50.932;5.318;2022-11-20T02:28:05;4.00;99.90
18392;DHT22;9322;50.932;5.318;2022-11-20T02:30:31;4.00;99.90
18392;DHT22;9322;50.932;5.318;2022-11-20T02:32:57;4.10;99.90
18392;DHT22;9322;50.932;5.318;2022-11-20T02:37:52;4.10;99.90
18392;DHT22;9322;50.932;5.318;2022-11-20T02:40:18;4.10;99.90
18392;DHT22;9322;50.932;5.318;2022-11-20T02:42:44;4.10;99.90
18392;DHT22;9322;50.932;5.318;2022-11-20T02:45:10;4.20;99.90
18392;DHT22;9322;50.932;5.318;2022-11-20T02:47:36;4.20;99.90
18392;DHT22;9322;50.932;5.318;2022-11-20T02:50:02;4.20;99.90
18392;DHT22;9322;50.932;5.318;2022-11-20T02:52:28;4.20;99.90
18392;DHT22;9322;50.932;5.318;2022-11-20T02:54:53;4.20;99.90
18392;DHT22;9322;50.932;5.318;2022-11-20T02:57:19;4.10;99.90
18392;DHT22;9322;50.932;5.318;2022-11-20T02:59:45;4.10;99.90
18392;DHT22;9322;50.932;5.318;2022-11-20T03:02:10;4.00;99.90
18392;DHT22;9322;50.932;5.318;2022-11-20T03:04:36;4.00;99.90
18392;DHT22;9322;50.932;5.318;2022-11-20T03:07:03;4.00;99.90
18392;DHT22;9322;50.932;5.318;2022-11-20T03:09:29;4.10;99.90
18392;DHT22;9322;50.932;5.318;2022-11-20T03:11:55;4.10;99.90
18392;DHT22;9322;50.932;5.318;2022-11-20T03:14:20;4.00;99.90
18392;DHT22;9322;50.932;5.318;2022-11-20T03:16:46;4.00;99.90
18392;DHT22;9322;50.932;5.318;2022-11-20T03:19:12;4.10;99.90
18392;DHT22;9322;50.932;5.318;2022-11-20T03:21:38;4.10;99.90
18392;DHT22;9322;50.932;5.318;2022-11-20T03:24:04;4.00;99.90
18392;DHT22;9322;50.932;5.318;2022-11-20T03:26:30;4.00;99.90
18392;DHT22;9322;50.932;5.318;2022-11-20T03:29:00;4.00;99.90
18392;DHT22;9322;50.932;5.318;2022-11-20T03:31:29;4.00;99.90
18392;DHT22;9322;50.932;5.318;2022-11-20T03:33:56;4.10;99.90
18392;DHT22;9322;50.932;5.318;2022-11-20T03:36:22;4.00;99.90
18392;DHT22;9322;50.932;5.318;2022-11-20T03:38:48;4.00;99.90
18392;DHT22;9322;50.932;5.318;2022-11-20T03:41:22;4.00;99.90
18392;DHT22;9322;50.932;5.318;2022-11-20T03:43:49;4.00;99.90
18392;DHT22;9322;50.932;5.318;2022-11-20T03:46:15;4.00;99.90
18392;DHT22;9322;50.932;5.318;2022-11-20T03:48:40;4.00;99.90
18392;DHT22;9322;50.932;5.318;2022-11-20T03:51:22;4.00;99.90
18392;DHT22;9322;50.932;5.318;2022-11-20T03:53:49;4.10;99.90
18392;DHT22;9322;50.932;5.318;2022-11-20T03:56:17;4.20;99.90
18392;DHT22;9322;50.932;5.318;2022-11-20T03:58:43;4.20;99.90
18392;DHT22;9322;50.932;5.318;2022-11-20T04:01:15;4.10;99.90
18392;DHT22;9322;50.932;5.318;2022-11-20T04:03:43;4.20;99.90
18392;DHT22;9322;50.932;5.318;2022-11-20T04:06:13;4.20;99.90
18392;DHT22;9322;50.932;5.318;2022-11-20T04:08:39;4.20;99.90
18392;DHT22;9322;50.932;5.318;2022-11-20T04:13:40;4.20;99.90
18392;DHT22;9322;50.932;5.318;2022-11-20T04:16:07;4.20;99.90
18392;DHT22;9322;50.932;5.318;2022-11-20T04:18:33;4.10;99.90
18392;DHT22;9322;50.932;5.318;2022-11-20T04:21:00;4.10;99.90
18392;DHT22;9322;50.932;5.318;2022-11-20T04:23:26;4.30;99.90
18392;DHT22;9322;50.932;5.318;2022-11-20T04:25:52;4.20;99.90
18392;DHT22;9322;50.932;5.318;2022-11-20T04:28:17;4.20;99.90
18392;DHT22;9322;50.932;5.318;2022-11-20T04:30:43;4.10;99.90
18392;DHT22;9322;50.932;5.318;2022-11-20T04:33:09;4.10;99.90
18392;DHT22;9322;50.932;5.318;2022-11-20T04:35:35;4.10;99.90
18392;DHT22;9322;50.932;5.318;2022-11-20T04:38:01;4.10;99.90
18392;DHT22;9322;50.932;5.318;2022-11-20T04:40:28;3.90;99.90
18392;DHT22;9322;50.932;5.318;2022-11-20T04:42:54;4.00;99.90
18392;DHT22;9322;50.932;5.318;2022-11-20T04:45:21;4.00;99.90
18392;DHT22;9322;50.932;5.318;2022-11-20T04:47:47;4.10;99.90
18392;DHT22;9322;50.932;5.318;2022-11-20T04:50:13;4.10;99.90
18392;DHT22;9322;50.932;5.318;2022-11-20T04:52:39;4.10;99.90
18392;DHT22;9322;50.932;5.318;2022-11-20T04:55:05;4.10;99.90
18392;DHT22;9322;50.932;5.318;2022-11-20T04:57:30;4.10;99.90
18392;DHT22;9322;50.932;5.318;2022-11-20T04:59:56;4.10;99.90
18392;DHT22;9322;50.932;5.318;2022-11-20T05:02:22;4.10;99.90
18392;DHT22;9322;50.932;5.318;2022-11-20T05:04:48;4.10;99.90
18392;DHT22;9322;50.932;5.318;2022-11-20T05:07:13;4.00;99.90
18392;DHT22;9322;50.932;5.318;2022-11-20T05:09:39;4.10;99.90
18392;DHT22;9322;50.932;5.318;2022-11-20T05:12:07;4.10;99.90
18392;DHT22;9322;50.932;5.318;2022-11-20T05:14:33;4.00;99.90
18392;DHT22;9322;50.932;5.318;2022-11-20T05:16:59;4.10;99.90
18392;DHT22;9322;50.932;5.318;2022-11-20T05:19:24;4.10;99.90
18392;DHT22;9322;50.932;5.318;2022-11-20T05:21:50;4.10;99.90
18392;DHT22;9322;50.932;5.318;2022-11-20T05:24:15;4.10;99.90
18392;DHT22;9322;50.932;5.318;2022-11-20T05:26:41;4.00;99.90
18392;DHT22;9322;50.932;5.318;2022-11-20T05:29:09;4.10;99.90
18392;DHT22;9322;50.932;5.318;2022-11-20T05:31:34;4.10;99.90
18392;DHT22;9322;50.932;5.318;2022-11-20T05:34:01;4.20;99.90
18392;DHT22;9322;50.932;5.318;2022-11-20T05:36:27;4.10;99.90
18392;DHT22;9322;50.932;5.318;2022-11-20T05:38:52;4.10;99.90
18392;DHT22;9322;50.932;5.318;2022-11-20T05:41:19;4.20;99.90
18392;DHT22;9322;50.932;5.318;2022-11-20T05:43:46;4.20;99.90
18392;DHT22;9322;50.932;5.318;2022-11-20T05:46:14;4.20;99.90
18392;DHT22;9322;50.932;5.318;2022-11-20T05:48:42;4.10;99.90
18392;DHT22;9322;50.932;5.318;2022-11-20T05:51:10;4.20;99.90
18392;DHT22;9322;50.932;5.318;2022-11-20T05:53:36;4.20;99.90
18392;DHT22;9322;50.932;5.318;2022-11-20T05:56:07;4.30;99.90
18392;DHT22;9322;50.932;5.318;2022-11-20T05:58:33;4.10;99.90
18392;DHT22;9322;50.932;5.318;2022-11-20T06:01:10;4.20;99.90
18392;DHT22;9322;50.932;5.318;2022-11-20T06:03:37;4.10;99.90
18392;DHT22;9322;50.932;5.318;2022-11-20T06:06:03;4.10;99.90
18392;DHT22;9322;50.932;5.318;2022-11-20T06:08:29;4.20;99.90
18392;DHT22;9322;50.932;5.318;2022-11-20T06:10:55;4.10;99.90
18392;DHT22;9322;50.932;5.318;2022-11-20T06:13:21;4.20;99.90
18392;DHT22;9322;50.932;5.318;2022-11-20T06:15:51;4.20;99.90
18392;DHT22;9322;50.932;5.318;2022-11-20T06:18:17;4.20;99.90
18392;DHT22;9322;50.932;5.318;2022-11-20T06:20:44;4.30;99.90
18392;DHT22;9322;50.932;5.318;2022-11-20T06:23:10;4.20;99.90
18392;DHT22;9322;50.932;5.318;2022-11-20T06:25:42;4.30;99.90
18392;DHT22;9322;50.932;5.318;2022-11-20T06:28:08;4.30;99.90
18392;DHT22;9322;50.932;5.318;2022-11-20T06:30:34;4.30;99.90
18392;DHT22;9322;50.932;5.318;2022-11-20T06:33:00;4.30;99.90
18392;DHT22;9322;50.932;5.318;2022-11-20T06:35:26;4.30;99.90
18392;DHT22;9322;50.932;5.318;2022-11-20T06:37:52;4.30;99.90
18392;DHT22;9322;50.932;5.318;2022-11-20T06:40:17;4.40;99.90
18392;DHT22;9322;50.932;5.318;2022-11-20T06:42:43;4.30;99.90
18392;DHT22;9322;50.932;5.318;2022-11-20T06:45:09;4.30;99.90
18392;DHT22;9322;50.932;5.318;2022-11-20T06:47:35;4.30;99.90
18392;DHT22;9322;50.932;5.318;2022-11-20T06:50:01;4.30;99.90
18392;DHT22;9322;50.932;5.318;2022-11-20T06:52:26;4.30;99.90
18392;DHT22;9322;50.932;5.318;2022-11-20T06:54:52;4.30;99.90
18392;DHT22;9322;50.932;5.318;2022-11-20T06:57:17;4.30;99.90
18392;DHT22;9322;50.932;5.318;2022-11-20T06:59:43;4.30;99.90
18392;DHT22;9322;50.932;5.318;2022-11-20T07:02:12;4.30;99.90
18392;DHT22;9322;50.932;5.318;2022-11-20T07:04:38;4.40;99.90
18392;DHT22;9322;50.932;5.318;2022-11-20T07:07:04;4.30;99.90
18392;DHT22;9322;50.932;5.318;2022-11-20T07:09:32;4.30;99.90
18392;DHT22;9322;50.932;5.318;2022-11-20T07:11:59;4.30;99.90
18392;DHT22;9322;50.932;5.318;2022-11-20T07:14:24;4.30;99.90
18392;DHT22;9322;50.932;5.318;2022-11-20T07:16:50;4.30;99.90
18392;DHT22;9322;50.932;5.318;2022-11-20T07:19:15;4.30;99.90
18392;DHT22;9322;50.932;5.318;2022-11-20T07:21:41;4.20;99.90
18392;DHT22;9322;50.932;5.318;2022-11-20T07:24:07;4.20;99.90
18392;DHT22;9322;50.932;5.318;2022-11-20T07:26:32;4.40;99.90
18392;DHT22;9322;50.932;5.318;2022-11-20T07:28:58;4.40;99.90
18392;DHT22;9322;50.932;5.318;2022-11-20T07:31:24;4.40;99.90
18392;DHT22;9322;50.932;5.318;2022-11-20T07:33:49;4.40;99.90
18392;DHT22;9322;50.932;5.318;2022-11-20T07:36:15;4.40;99.90
18392;DHT22;9322;50.932;5.318;2022-11-20T07:38:41;4.50;99.90
18392;DHT22;9322;50.932;5.318;2022-11-20T07:41:06;4.60;99.90
18392;DHT22;9322;50.932;5.318;2022-11-20T07:43:32;4.50;99.90
18392;DHT22;9322;50.932;5.318;2022-11-20T07:45:59;4.50;99.90
18392;DHT22;9322;50.932;5.318;2022-11-20T07:48:25;4.40;99.90
18392;DHT22;9322;50.932;5.318;2022-11-20T07:50:55;4.60;99.90
18392;DHT22;9322;50.932;5.318;2022-11-20T07:53:21;4.60;99.90
18392;DHT22;9322;50.932;5.318;2022-11-20T07:55:47;4.70;99.90
18392;DHT22;9322;50.932;5.318;2022-11-20T07:58:13;4.60;99.90
18392;DHT22;9322;50.932;5.318;2022-11-20T08:00:40;4.60;99.90
18392;DHT22;9322;50.932;5.318;2022-11-20T08:03:06;4.50;99.90
18392;DHT22;9322;50.932;5.318;2022-11-20T08:05:32;4.60;99.90
18392;DHT22;9322;50.932;5.318;2022-11-20T08:07:58;4.70;99.90
18392;DHT22;9322;50.932;5.318;2022-11-20T08:10:23;4.60;99.90
18392;DHT22;9322;50.932;5.318;2022-11-20T08:12:50;4.60;99.90
18392;DHT22;9322;50.932;5.318;2022-11-20T08:15:34;4.70;99.90
18392;DHT22;9322;50.932;5.318;2022-11-20T08:18:02;4.90;99.90
18392;DHT22;9322;50.932;5.318;2022-11-20T08:20:28;5.00;99.90
18392;DHT22;9322;50.932;5.318;2022-11-20T08:23:01;5.10;99.90
18392;DHT22;9322;50.932;5.318;2022-11-20T08:25:29;4.90;99.90
18392;DHT22;9322;50.932;5.318;2022-11-20T08:27:57;4.80;99.90
18392;DHT22;9322;50.932;5.318;2022-11-20T08:30:23;4.90;99.90
18392;DHT22;9322;50.932;5.318;2022-11-20T08:32:48;4.90;99.90
18392;DHT22;9322;50.932;5.318;2022-11-20T08:35:14;5.00;99.90
18392;DHT22;9322;50.932;5.318;2022-11-20T08:37:39;4.90;99.90
18392;DHT22;9322;50.932;5.318;2022-11-20T08:40:09;5.00;99.90
18392;DHT22;9322;50.932;5.318;2022-11-20T08:42:35;5.00;99.90
18392;DHT22;9322;50.932;5.318;2022-11-20T08:45:01;5.10;99.90
18392;DHT22;9322;50.932;5.318;2022-11-20T08:47:27;5.10;99.90
18392;DHT22;9322;50.932;5.318;2022-11-20T08:49:52;5.10;99.90
18392;DHT22;9322;50.932;5.318;2022-11-20T08:52:18;5.10;99.90
18392;DHT22;9322;50.932;5.318;2022-11-20T08:54:43;5.20;99.90
18392;DHT22;9322;50.932;5.318;2022-11-20T08:57:09;5.10;99.90
18392;DHT22;9322;50.932;5.318;2022-11-20T08:59:34;5.10;99.90
18392;DHT22;9322;50.932;5.318;2022-11-20T09:02:00;5.30;99.90
18392;DHT22;9322;50.932;5.318;2022-11-20T09:04:26;5.30;99.90
18392;DHT22;9322;50.932;5.318;2022-11-20T09:06:51;5.50;99.90
18392;DHT22;9322;50.932;5.318;2022-11-20T09:09:17;5.70;99.90
18392;DHT22;9322;50.932;5.318;2022-11-20T09:11:44;5.60;99.90
18392;DHT22;9322;50.932;5.318;2022-11-20T09:14:10;5.60;99.90
18392;DHT22;9322;50.932;5.318;2022-11-20T09:16:35;5.60;99.90
18392;DHT22;9322;50.932;5.318;2022-11-20T09:19:01;5.70;99.90
18392;DHT22;9322;50.932;5.318;2022-11-20T09:21:26;5.70;99.90
18392;DHT22;9322;50.932;5.318;2022-11-20T09:23:52;5.80;99.90
18392;DHT22;9322;50.932;5.318;2022-11-20T09:26:17;5.90;99.90
18392;DHT22;9322;50.932;5.318;2022-11-20T09:28:43;5.80;99.90
18392;DHT22;9322;50.932;5.318;2022-11-20T09:31:23;5.70;99.90
18392;DHT22;9322;50.932;5.318;2022-11-20T09:33:49;5.90;99.90
18392;DHT22;9322;50.932;5.318;2022-11-20T09:36:15;6.00;99.90
18392;DHT22;9322;50.932;5.318;2022-11-20T09:38:44;6.00;99.90
18392;DHT22;9322;50.932;5.318;2022-11-20T09:41:27;6.20;99.90
18392;DHT22;9322;50.932;5.318;2022-11-20T09:46:50;6.30;99.90
18392;DHT22;9322;50.932;5.318;2022-11-20T09:54:39;5.90;99.90
18392;DHT22;9322;50.932;5.318;2022-11-20T09:57:15;6.10;99.90
18392;DHT22;9322;50.932;5.318;2022-11-20T09:59:56;6.00;99.90
18392;DHT22;9322;50.932;5.318;2022-11-20T10:02:28;6.00;99.90
18392;DHT22;9322;50.932;5.318;2022-11-20T10:05:20;6.20;99.90
18392;DHT22;9322;50.932;5.318;2022-11-20T10:29:46;6.50;99.90
18392;DHT22;9322;50.932;5.318;2022-11-20T10:32:20;6.70;99.90
18392;DHT22;9322;50.932;5.318;2022-11-20T10:34:54;6.70;99.90
18392;DHT22;9322;50.932;5.318;2022-11-20T10:37:26;6.80;99.90
18392;DHT22;9322;50.932;5.318;2022-11-20T10:42:35;7.10;99.90
18392;DHT22;9322;50.932;5.318;2022-11-20T10:45:27;7.00;99.90
18392;DHT22;9322;50.932;5.318;2022-11-20T10:48:21;7.10;99.90
18392;DHT22;9322;50.932;5.318;2022-11-20T10:56:51;7.20;99.90
18392;DHT22;9322;50.932;5.318;2022-11-20T11:00:05;7.20;99.90
18392;DHT22;9322;50.932;5.318;2022-11-20T11:02:40;7.50;99.90
18392;DHT22;9322;50.932;5.318;2022-11-20T11:07:53;7.60;99.90
18392;DHT22;9322;50.932;5.318;2022-11-20T11:13:29;8.00;99.90
18392;DHT22;9322;50.932;5.318;2022-11-20T11:15:55;8.10;99.90
18392;DHT22;9322;50.932;5.318;2022-11-20T11:18:32;8.10;99.90
18392;DHT22;9322;50.932;5.318;2022-11-20T11:21:03;8.10;99.90
18392;DHT22;9322;50.932;5.318;2022-11-20T11:23:35;7.90;99.90
18392;DHT22;9322;50.932;5.318;2022-11-20T11:26:05;8.00;99.90
18392;DHT22;9322;50.932;5.318;2022-11-20T11:28:32;8.20;99.90
18392;DHT22;9322;50.932;5.318;2022-11-20T11:30:57;8.20;99.90
18392;DHT22;9322;50.932;5.318;2022-11-20T11:33:30;7.90;99.90
18392;DHT22;9322;50.932;5.318;2022-11-20T11:36:18;7.90;99.90
18392;DHT22;9322;50.932;5.318;2022-11-20T11:38:45;7.90;99.90
18392;DHT22;9322;50.932;5.318;2022-11-20T11:41:20;7.90;99.90
18392;DHT22;9322;50.932;5.318;2022-11-20T11:43:52;8.20;99.90
18392;DHT22;9322;50.932;5.318;2022-11-20T11:46:38;8.30;99.90
18392;DHT22;9322;50.932;5.318;2022-11-20T11:54:49;8.50;99.90
18392;DHT22;9322;50.932;5.318;2022-11-20T12:00:05;8.70;99.90
18392;DHT22;9322;50.932;5.318;2022-11-20T12:13:09;8.80;99.90
18392;DHT22;9322;50.932;5.318;2022-11-20T12:15:44;9.00;99.90
18392;DHT22;9322;50.932;5.318;2022-11-20T12:18:15;9.10;99.90
18392;DHT22;9322;50.932;5.318;2022-11-20T12:20:48;9.10;99.90
18392;DHT22;9322;50.932;5.318;2022-11-20T12:25:57;9.40;99.90
18392;DHT22;9322;50.932;5.318;2022-11-20T12:34:19;9.40;99.90
18392;DHT22;9322;50.932;5.318;2022-11-20T12:39:49;9.20;99.90
18392;DHT22;9322;50.932;5.318;2022-11-20T12:52:57;9.60;99.90
18392;DHT22;9322;50.932;5.318;2022-11-20T12:58:27;9.60;99.90
18392;DHT22;9322;50.932;5.318;2022-11-20T13:01:04;9.70;99.90
18392;DHT22;9322;50.932;5.318;2022-11-20T13:03:48;9.70;99.90
18392;DHT22;9322;50.932;5.318;2022-11-20T13:06:18;9.60;99.90
18392;DHT22;9322;50.932;5.318;2022-11-20T13:08:54;9.40;99.90
18392;DHT22;9322;50.932;5.318;2022-11-20T13:19:14;9.20;99.90
18392;DHT22;9322;50.932;5.318;2022-11-20T13:21:43;9.30;99.90
18392;DHT22;9322;50.932;5.318;2022-11-20T13:26:45;9.10;99.90
18392;DHT22;9322;50.932;5.318;2022-11-20T13:29:17;9.10;99.90
18392;DHT22;9322;50.932;5.318;2022-11-20T13:31:47;8.90;99.90
18392;DHT22;9322;50.932;5.318;2022-11-20T13:34:24;8.80;99.90
18392;DHT22;9322;50.932;5.318;2022-11-20T13:36:56;8.50;99.90
18392;DHT22;9322;50.932;5.318;2022-11-20T13:39:34;8.60;99.90
18392;DHT22;9322;50.932;5.318;2022-11-20T13:42:02;8.50;99.90
18392;DHT22;9322;50.932;5.318;2022-11-20T13:44:38;8.30;99.90
18392;DHT22;9322;50.932;5.318;2022-11-20T13:47:23;8.20;99.90
18392;DHT22;9322;50.932;5.318;2022-11-20T13:49:52;8.10;99.90
18392;DHT22;9322;50.932;5.318;2022-11-20T13:58:04;7.70;99.90
18392;DHT22;9322;50.932;5.318;2022-11-20T14:00:33;7.70;99.90
18392;DHT22;9322;50.932;5.318;2022-11-20T14:05:45;7.80;99.90
18392;DHT22;9322;50.932;5.318;2022-11-20T14:08:24;7.70;99.90
18392;DHT22;9322;50.932;5.318;2022-11-20T14:10:50;7.80;99.90
18392;DHT22;9322;50.932;5.318;2022-11-20T14:13:19;7.80;99.90
18392;DHT22;9322;50.932;5.318;2022-11-20T14:15:45;7.80;99.90
18392;DHT22;9322;50.932;5.318;2022-11-20T14:18:21;7.90;99.90
18392;DHT22;9322;50.932;5.318;2022-11-20T14:20:47;7.70;99.90
18392;DHT22;9322;50.932;5.318;2022-11-20T14:23:22;7.60;99.90
18392;DHT22;9322;50.932;5.318;2022-11-20T14:25:48;7.50;99.90
18392;DHT22;9322;50.932;5.318;2022-11-20T14:28:28;7.50;99.90
18392;DHT22;9322;50.932;5.318;2022-11-20T14:30:54;7.50;99.90
18392;DHT22;9322;50.932;5.318;2022-11-20T14:33:21;7.60;99.90
18392;DHT22;9322;50.932;5.318;2022-11-20T14:35:52;7.40;99.90
18392;DHT22;9322;50.932;5.318;2022-11-20T14:38:21;7.30;99.90
18392;DHT22;9322;50.932;5.318;2022-11-20T14:40:47;7.20;99.90
18392;DHT22;9322;50.932;5.318;2022-11-20T14:43:22;7.30;99.90
18392;DHT22;9322;50.932;5.318;2022-11-20T14:46:08;7.40;99.90
18392;DHT22;9322;50.932;5.318;2022-11-20T14:48:43;7.20;99.90
18392;DHT22;9322;50.932;5.318;2022-11-20T14:51:33;7.20;99.90
18392;DHT22;9322;50.932;5.318;2022-11-20T14:56:38;7.20;99.90
18392;DHT22;9322;50.932;5.318;2022-11-20T14:59:04;7.20;99.90
18392;DHT22;9322;50.932;5.318;2022-11-20T15:01:31;7.30;99.90
18392;DHT22;9322;50.932;5.318;2022-11-20T15:04:20;7.20;99.90
18392;DHT22;9322;50.932;5.318;2022-11-20T15:06:56;7.30;99.90
18392;DHT22;9322;50.932;5.318;2022-11-20T15:09:22;7.10;99.90
18392;DHT22;9322;50.932;5.318;2022-11-20T15:11:56;7.20;99.90
18392;DHT22;9322;50.932;5.318;2022-11-20T15:14:24;7.20;99.90
18392;DHT22;9322;50.932;5.318;2022-11-20T15:16:51;7.30;99.90
18392;DHT22;9322;50.932;5.318;2022-11-20T15:19:20;7.30;99.90
18392;DHT22;9322;50.932;5.318;2022-11-20T15:21:46;7.30;99.90
18392;DHT22;9322;50.932;5.318;2022-11-20T15:24:11;7.20;99.90
18392;DHT22;9322;50.932;5.318;2022-11-20T15:26:38;7.20;99.90
18392;DHT22;9322;50.932;5.318;2022-11-20T15:29:14;7.30;99.90
18392;DHT22;9322;50.932;5.318;2022-11-20T15:31:43;7.30;99.90
18392;DHT22;9322;50.932;5.318;2022-11-20T15:34:16;7.40;99.90
18392;DHT22;9322;50.932;5.318;2022-11-20T15:36:42;7.30;99.90
18392;DHT22;9322;50.932;5.318;2022-11-20T15:39:09;7.60;99.90
18392;DHT22;9322;50.932;5.318;2022-11-20T15:41:36;7.40;99.90
18392;DHT22;9322;50.932;5.318;2022-11-20T15:44:03;7.40;99.90
18392;DHT22;9322;50.932;5.318;2022-11-20T15:46:31;7.40;99.90
18392;DHT22;9322;50.932;5.318;2022-11-20T15:49:03;7.40;99.90
18392;DHT22;9322;50.932;5.318;2022-11-20T15:51:35;7.50;99.90
18392;DHT22;9322;50.932;5.318;2022-11-20T15:54:05;7.50;99.90
18392;DHT22;9322;50.932;5.318;2022-11-20T15:56:34;7.50;99.90
18392;DHT22;9322;50.932;5.318;2022-11-20T15:59:00;7.50;99.90
18392;DHT22;9322;50.932;5.318;2022-11-20T16:01:26;7.70;99.90
18392;DHT22;9322;50.932;5.318;2022-11-20T16:03:51;7.80;99.90
18392;DHT22;9322;50.932;5.318;2022-11-20T16:06:17;7.80;99.90
18392;DHT22;9322;50.932;5.318;2022-11-20T16:08:43;8.00;99.90
18392;DHT22;9322;50.932;5.318;2022-11-20T16:11:12;7.80;99.90
18392;DHT22;9322;50.932;5.318;2022-11-20T16:13:38;7.90;99.90
18392;DHT22;9322;50.932;5.318;2022-11-20T16:16:25;8.00;99.90
18392;DHT22;9322;50.932;5.318;2022-11-20T16:18:53;8.00;99.90
18392;DHT22;9322;50.932;5.318;2022-11-20T16:21:19;8.10;99.90
18392;DHT22;9322;50.932;5.318;2022-11-20T16:23:45;8.00;99.90
18392;DHT22;9322;50.932;5.318;2022-11-20T16:26:16;8.10;99.90
18392;DHT22;9322;50.932;5.318;2022-11-20T16:28:46;8.10;99.90
18392;DHT22;9322;50.932;5.318;2022-11-20T16:31:14;8.10;99.90
18392;DHT22;9322;50.932;5.318;2022-11-20T16:33:40;8.30;99.90
18392;DHT22;9322;50.932;5.318;2022-11-20T16:36:14;8.40;99.90
18392;DHT22;9322;50.932;5.318;2022-11-20T16:38:41;8.50;99.90
18392;DHT22;9322;50.932;5.318;2022-11-20T16:41:07;8.50;99.90
18392;DHT22;9322;50.932;5.318;2022-11-20T16:43:50;8.50;99.90
18392;DHT22;9322;50.932;5.318;2022-11-20T16:46:17;8.50;99.90
18392;DHT22;9322;50.932;5.318;2022-11-20T16:48:43;8.60;99.90
18392;DHT22;9322;50.932;5.318;2022-11-20T16:51:15;8.60;99.90
18392;DHT22;9322;50.932;5.318;2022-11-20T16:53:40;8.60;99.90
18392;DHT22;9322;50.932;5.318;2022-11-20T16:56:12;8.60;99.90
18392;DHT22;9322;50.932;5.318;2022-11-20T16:58:38;8.60;99.90
18392;DHT22;9322;50.932;5.318;2022-11-20T17:01:08;8.60;99.90
18392;DHT22;9322;50.932;5.318;2022-11-20T17:03:39;8.60;99.90
18392;DHT22;9322;50.932;5.318;2022-11-20T17:06:20;8.60;99.90
18392;DHT22;9322;50.932;5.318;2022-11-20T17:08:46;8.50;99.90
18392;DHT22;9322;50.932;5.318;2022-11-20T17:11:15;8.70;99.90
18392;DHT22;9322;50.932;5.318;2022-11-20T17:13:41;8.70;99.90
18392;DHT22;9322;50.932;5.318;2022-11-20T17:16:12;8.60;99.90
18392;DHT22;9322;50.932;5.318;2022-11-20T17:18:39;8.60;99.90
18392;DHT22;9322;50.932;5.318;2022-11-20T17:21:05;8.60;99.90
18392;DHT22;9322;50.932;5.318;2022-11-20T17:23:32;8.50;99.90
18392;DHT22;9322;50.932;5.318;2022-11-20T17:26:12;8.50;99.90
18392;DHT22;9322;50.932;5.318;2022-11-20T17:28:43;8.50;99.90
18392;DHT22;9322;50.932;5.318;2022-11-20T17:31:12;8.40;99.90
18392;DHT22;9322;50.932;5.318;2022-11-20T17:33:39;8.40;99.90
18392;DHT22;9322;50.932;5.318;2022-11-20T17:36:06;8.40;99.90
18392;DHT22;9322;50.932;5.318;2022-11-20T17:38:33;8.40;99.90
18392;DHT22;9322;50.932;5.318;2022-11-20T17:41:07;8.30;99.90
18392;DHT22;9322;50.932;5.318;2022-11-20T17:43:33;8.30;99.90
18392;DHT22;9322;50.932;5.318;2022-11-20T17:48:31;8.40;99.90
18392;DHT22;9322;50.932;5.318;2022-11-20T17:51:05;8.20;99.90
18392;DHT22;9322;50.932;5.318;2022-11-20T17:53:35;8.20;99.90
18392;DHT22;9322;50.932;5.318;2022-11-20T17:56:01;8.20;99.90
18392;DHT22;9322;50.932;5.318;2022-11-20T17:58:45;8.20;99.90
18392;DHT22;9322;50.932;5.318;2022-11-20T18:01:11;8.40;99.90
18392;DHT22;9322;50.932;5.318;2022-11-20T18:03:37;8.60;99.90
18392;DHT22;9322;50.932;5.318;2022-11-20T18:06:16;8.60;99.90
18392;DHT22;9322;50.932;5.318;2022-11-20T18:08:42;8.60;99.90
18392;DHT22;9322;50.932;5.318;2022-11-20T18:11:19;8.60;99.90
18392;DHT22;9322;50.932;5.318;2022-11-20T18:13:49;8.60;99.90